Richmond International Airport Richmond US
ICAO: KRIC
IATA: RIC
Category: Large
Scheduled Services: Yes

Elevation: 167 ft
TransAlt. 18000 ft.

Airport Communications:
POTOMAC APP/DEP:118.2
ATIS:119.15
CLNC DEL:127.55
GND:121.9
ARNG OPS:40.2
ANG OPS:142.175
LEESBURG RDO:122.2
TWR:121.1
UNICOM:122.95

KRIC Zoom In..

If you have problems with the map follow the link
https://www.worldairports.se/pages/airport.php?
ICAO=KRIC

Runways:

(A) RW 02 length 6607 ft width 150 ft
ILS 110.90 / hdg 22

(B) RW 07 length 5326 ft width 100 ft
---- / hdg 66

(C) RW 16 length 9003 ft width 150 ft
ILS 110.70 / hdg 156

(D) RW 20 length 6607 ft width 150 ft
---- / hdg 202

(E) RW 25 length 5326 ft width 100 ft
---- / hdg 246

(F) RW 34 length 9003 ft width 150 ft
ILS 110.70 / hdg 336

Location; KRIC
Day. 12 / Time. 09.54 Zulu
* Altimeter: 30.66
* Temperature: -02° c. -28.4°f.
* Wind from: 360° Speed 04 kn.
Dewpoint: -07° c.
Visibility: 10 Statute Miles.
Clouds: Clear (automated report).

KRIC 120954Z 36004KT 10SM CLR M02/M07 A3066 RMK AO2 SLP388 T10221067 $


Wind From 360°
Speed 04 kn.

 
 
jpsmedia worldairports.se 2019   terms of use